CheckWX is a tool to help pilots better visualize weather data.  It is not intended as a substitute for an official pre-flight weather briefing.

23:50:03 UTC

MSSA METAR
El Palmer Airport
Santa Ana, El Salvador
Current

4 hours ago

MSSA 281950Z 08005KT 9999 SCT037 31/17 Q1016 A3002
Observed
Jan-28 @ 19:50 UTC
Wind
  • 080° at 5 KTS
Visibility
10,000+ meters
Flight Rules
VFR
Cloud Levels
  • Scattered at 3,700' AGL
Temperature
31°C / 88°F
Dewpoint
17°C / 63°F
Heat Index
32°C / 89°F
Humidity
43%
Altimeter
30" Hg
Pressure
1015.92 hPa
Previous

5 hours ago

MSSA 281850Z 14002KT 9999 SCT037 30/18 Q1017 A3005
Observed
Jan-28 @ 18:50 UTC
Wind
  • 140° at 2 KTS
Visibility
10,000+ meters
Flight Rules
VFR
Cloud Levels
  • Scattered at 3,700' AGL
Temperature
30°C / 86°F
Dewpoint
18°C / 64°F
Heat Index
31°C / 88°F
Humidity
49%
Altimeter
30.03" Hg
Pressure
1016.92 hPa
Previous

6 hours ago

MSSA 281750Z 02004KT 9999 SCT037 30/19 Q1019 A3010
Observed
Jan-28 @ 17:50 UTC
Wind
  • 020° at 4 KTS
Visibility
10,000+ meters
Flight Rules
VFR
Cloud Levels
  • Scattered at 3,700' AGL
Temperature
30°C / 86°F
Dewpoint
19°C / 66°F
Heat Index
31°C / 88°F
Humidity
52%
Altimeter
30.09" Hg
Pressure
1018.92 hPa